sensor_id;sensor_type;location;lat;lon;timestamp;P1;durP1;ratioP1;P2;durP2;ratioP2
33738;SDS011;20063;51.730;11.110;2022-10-15T00:00:16;5.00;;;3.97;;
33738;SDS011;20063;51.730;11.110;2022-10-15T00:02:41;8.57;;;4.35;;
33738;SDS011;20063;51.730;11.110;2022-10-15T00:05:07;5.40;;;4.70;;
33738;SDS011;20063;51.730;11.110;2022-10-15T00:07:33;4.55;;;4.10;;
33738;SDS011;20063;51.730;11.110;2022-10-15T00:09:58;7.63;;;4.25;;
33738;SDS011;20063;51.730;11.110;2022-10-15T00:12:24;5.80;;;4.28;;
33738;SDS011;20063;51.730;11.110;2022-10-15T00:14:49;7.53;;;4.35;;
33738;SDS011;20063;51.730;11.110;2022-10-15T00:17:15;9.68;;;5.03;;
33738;SDS011;20063;51.730;11.110;2022-10-15T00:36:31;5.43;;;4.28;;
33738;SDS011;20063;51.730;11.110;2022-10-15T00:38:59;5.07;;;4.53;;
33738;SDS011;20063;51.730;11.110;2022-10-15T00:41:30;5.85;;;4.85;;
33738;SDS011;20063;51.730;11.110;2022-10-15T00:44:02;6.45;;;4.80;;
33738;SDS011;20063;51.730;11.110;2022-10-15T00:49:39;7.60;;;5.13;;
33738;SDS011;20063;51.730;11.110;2022-10-15T00:54:44;5.85;;;4.68;;
33738;SDS011;20063;51.730;11.110;2022-10-15T00:57:16;4.88;;;4.45;;
33738;SDS011;20063;51.730;11.110;2022-10-15T00:59:46;6.57;;;4.00;;
33738;SDS011;20063;51.730;11.110;2022-10-15T01:02:16;6.93;;;4.82;;
33738;SDS011;20063;51.730;11.110;2022-10-15T11:47:25;1.10;;;0.73;;
33738;SDS011;20063;51.730;11.110;2022-10-15T11:50:12;1.13;;;1.02;;
33738;SDS011;20063;51.730;11.110;2022-10-15T11:58:00;0.60;;;0.60;;
33738;SDS011;20063;51.730;11.110;2022-10-15T12:00:39;7.63;;;1.05;;
33738;SDS011;20063;51.730;11.110;2022-10-15T12:03:13;0.80;;;0.80;;
33738;SDS011;20063;51.730;11.110;2022-10-15T12:05:44;1.00;;;0.70;;
33738;SDS011;20063;51.730;11.110;2022-10-15T12:08:14;0.70;;;0.70;;
33738;SDS011;20063;51.730;11.110;2022-10-15T12:13:37;0.73;;;0.70;;
33738;SDS011;20063;51.730;11.110;2022-10-15T12:18:58;0.40;;;0.40;;
33738;SDS011;20063;51.730;11.110;2022-10-15T12:27:36;0.63;;;0.63;;
33738;SDS011;20063;51.730;11.110;2022-10-15T12:32:30;0.50;;;0.50;;
33738;SDS011;20063;51.730;11.110;2022-10-15T12:35:01;0.70;;;0.47;;
33738;SDS011;20063;51.730;11.110;2022-10-15T12:37:42;0.50;;;0.50;;
33738;SDS011;20063;51.730;11.110;2022-10-15T12:40:25;2.15;;;0.43;;
33738;SDS011;20063;51.730;11.110;2022-10-15T12:42:58;0.70;;;0.40;;
33738;SDS011;20063;51.730;11.110;2022-10-15T12:45:39;0.38;;;0.38;;
33738;SDS011;20063;51.730;11.110;2022-10-15T12:50:43;0.30;;;0.30;;
33738;SDS011;20063;51.730;11.110;2022-10-15T12:58:46;3.05;;;0.63;;
33738;SDS011;20063;51.730;11.110;2022-10-15T13:14:40;0.47;;;0.47;;
33738;SDS011;20063;51.730;11.110;2022-10-15T13:16:49;0.98;;;0.60;;
33738;SDS011;20063;51.730;11.110;2022-10-15T13:19:18;0.57;;;0.55;;
33738;SDS011;20063;51.730;11.110;2022-10-15T13:24:22;0.40;;;0.40;;
33738;SDS011;20063;51.730;11.110;2022-10-15T13:26:50;0.40;;;0.40;;
33738;SDS011;20063;51.730;11.110;2022-10-15T13:29:18;2.38;;;0.30;;
33738;SDS011;20063;51.730;11.110;2022-10-15T13:31:47;4.28;;;0.28;;
33738;SDS011;20063;51.730;11.110;2022-10-15T13:36:57;0.57;;;0.50;;
33738;SDS011;20063;51.730;11.110;2022-10-15T13:39:40;0.75;;;0.40;;
33738;SDS011;20063;51.730;11.110;2022-10-15T13:42:12;0.68;;;0.38;;
33738;SDS011;20063;51.730;11.110;2022-10-15T13:44:40;0.30;;;0.30;;
33738;SDS011;20063;51.730;11.110;2022-10-15T13:47:18;3.10;;;0.40;;
33738;SDS011;20063;51.730;11.110;2022-10-15T16:38:14;5.10;;;3.05;;
33738;SDS011;20063;51.730;11.110;2022-10-15T16:40:40;1.77;;;1.38;;
33738;SDS011;20063;51.730;11.110;2022-10-15T16:43:05;1.75;;;1.25;;
33738;SDS011;20063;51.730;11.110;2022-10-15T16:45:31;5.68;;;3.88;;
33738;SDS011;20063;51.730;11.110;2022-10-15T16:47:57;7.18;;;4.40;;
33738;SDS011;20063;51.730;11.110;2022-10-15T16:50:23;5.68;;;3.60;;
33738;SDS011;20063;51.730;11.110;2022-10-15T16:52:48;6.10;;;3.45;;
33738;SDS011;20063;51.730;11.110;2022-10-15T16:55:14;3.22;;;1.50;;
33738;SDS011;20063;51.730;11.110;2022-10-15T16:57:40;13.73;;;7.60;;
33738;SDS011;20063;51.730;11.110;2022-10-15T17:00:06;8.43;;;5.07;;
33738;SDS011;20063;51.730;11.110;2022-10-15T17:02:32;4.20;;;2.40;;
33738;SDS011;20063;51.730;11.110;2022-10-15T17:04:58;3.70;;;2.50;;
33738;SDS011;20063;51.730;11.110;2022-10-15T17:07:24;1.98;;;1.50;;
33738;SDS011;20063;51.730;11.110;2022-10-15T17:09:50;2.17;;;1.98;;
33738;SDS011;20063;51.730;11.110;2022-10-15T17:12:15;6.68;;;1.88;;
33738;SDS011;20063;51.730;11.110;2022-10-15T17:14:41;3.83;;;1.77;;
33738;SDS011;20063;51.730;11.110;2022-10-15T17:17:13;3.38;;;1.50;;
33738;SDS011;20063;51.730;11.110;2022-10-15T17:19:38;1.45;;;1.25;;
33738;SDS011;20063;51.730;11.110;2022-10-15T17:22:04;0.85;;;0.82;;
33738;SDS011;20063;51.730;11.110;2022-10-15T17:24:30;1.58;;;1.35;;
33738;SDS011;20063;51.730;11.110;2022-10-15T17:26:55;4.18;;;2.13;;
33738;SDS011;20063;51.730;11.110;2022-10-15T17:29:22;4.95;;;2.80;;
33738;SDS011;20063;51.730;11.110;2022-10-15T17:31:55;3.17;;;1.58;;
33738;SDS011;20063;51.730;11.110;2022-10-15T17:34:24;2.72;;;1.60;;
33738;SDS011;20063;51.730;11.110;2022-10-15T17:36:51;2.47;;;1.52;;
33738;SDS011;20063;51.730;11.110;2022-10-15T17:39:19;2.40;;;1.70;;
33738;SDS011;20063;51.730;11.110;2022-10-15T17:41:46;2.70;;;1.13;;
33738;SDS011;20063;51.730;11.110;2022-10-15T17:44:13;1.95;;;1.00;;
33738;SDS011;20063;51.730;11.110;2022-10-15T17:46:39;2.53;;;1.15;;
33738;SDS011;20063;51.730;11.110;2022-10-15T17:49:05;8.35;;;1.00;;
33738;SDS011;20063;51.730;11.110;2022-10-15T17:51:33;1.15;;;1.05;;
33738;SDS011;20063;51.730;11.110;2022-10-15T17:53:59;1.27;;;0.98;;
33738;SDS011;20063;51.730;11.110;2022-10-15T17:56:26;3.72;;;1.55;;
33738;SDS011;20063;51.730;11.110;2022-10-15T17:58:54;1.45;;;1.35;;
33738;SDS011;20063;51.730;11.110;2022-10-15T18:01:25;1.33;;;1.17;;
33738;SDS011;20063;51.730;11.110;2022-10-15T18:03:55;7.30;;;2.63;;
33738;SDS011;20063;51.730;11.110;2022-10-15T18:06:21;1.67;;;1.42;;
33738;SDS011;20063;51.730;11.110;2022-10-15T18:08:48;2.22;;;1.67;;
33738;SDS011;20063;51.730;11.110;2022-10-15T18:11:17;1.35;;;1.20;;
33738;SDS011;20063;51.730;11.110;2022-10-15T18:13:50;1.48;;;1.35;;
33738;SDS011;20063;51.730;11.110;2022-10-15T18:16:17;2.00;;;1.00;;
33738;SDS011;20063;51.730;11.110;2022-10-15T18:18:43;1.40;;;1.15;;
33738;SDS011;20063;51.730;11.110;2022-10-15T18:21:09;3.75;;;1.15;;
33738;SDS011;20063;51.730;11.110;2022-10-15T18:23:37;1.33;;;1.05;;
33738;SDS011;20063;51.730;11.110;2022-10-15T18:26:05;2.63;;;0.90;;
33738;SDS011;20063;51.730;11.110;2022-10-15T18:28:36;3.72;;;1.20;;
33738;SDS011;20063;51.730;11.110;2022-10-15T18:31:02;1.10;;;0.73;;
33738;SDS011;20063;51.730;11.110;2022-10-15T18:33:29;0.90;;;0.90;;
33738;SDS011;20063;51.730;11.110;2022-10-15T18:36:02;1.10;;;1.00;;
33738;SDS011;20063;51.730;11.110;2022-10-15T18:38:30;1.80;;;0.80;;
33738;SDS011;20063;51.730;11.110;2022-10-15T18:40:55;1.10;;;0.82;;
33738;SDS011;20063;51.730;11.110;2022-10-15T18:43:21;2.28;;;1.10;;
33738;SDS011;20063;51.730;11.110;2022-10-15T18:45:46;2.13;;;1.48;;
33738;SDS011;20063;51.730;11.110;2022-10-15T18:48:12;2.38;;;1.20;;
33738;SDS011;20063;51.730;11.110;2022-10-15T18:50:41;2.35;;;1.42;;
33738;SDS011;20063;51.730;11.110;2022-10-15T18:53:08;5.90;;;1.50;;
33738;SDS011;20063;51.730;11.110;2022-10-15T18:55:34;1.30;;;1.20;;
33738;SDS011;20063;51.730;11.110;2022-10-15T18:58:00;1.83;;;1.20;;
33738;SDS011;20063;51.730;11.110;2022-10-15T19:00:26;2.08;;;1.48;;
33738;SDS011;20063;51.730;11.110;2022-10-15T19:02:52;2.35;;;1.38;;
33738;SDS011;20063;51.730;11.110;2022-10-15T19:05:20;1.40;;;1.30;;
33738;SDS011;20063;51.730;11.110;2022-10-15T19:07:46;3.38;;;1.45;;
33738;SDS011;20063;51.730;11.110;2022-10-15T19:10:12;1.50;;;1.00;;
33738;SDS011;20063;51.730;11.110;2022-10-15T19:12:37;1.88;;;1.00;;
33738;SDS011;20063;51.730;11.110;2022-10-15T19:15:03;8.45;;;2.47;;
33738;SDS011;20063;51.730;11.110;2022-10-15T19:17:29;3.15;;;2.22;;
33738;SDS011;20063;51.730;11.110;2022-10-15T19:19:54;3.78;;;1.83;;
33738;SDS011;20063;51.730;11.110;2022-10-15T19:22:20;2.03;;;1.83;;
33738;SDS011;20063;51.730;11.110;2022-10-15T19:24:46;5.70;;;2.38;;
33738;SDS011;20063;51.730;11.110;2022-10-15T19:27:11;7.85;;;2.55;;
33738;SDS011;20063;51.730;11.110;2022-10-15T19:29:37;5.22;;;2.03;;
33738;SDS011;20063;51.730;11.110;2022-10-15T19:32:03;8.68;;;1.83;;
33738;SDS011;20063;51.730;11.110;2022-10-15T19:34:29;2.67;;;1.00;;
33738;SDS011;20063;51.730;11.110;2022-10-15T19:36:55;1.45;;;1.00;;
33738;SDS011;20063;51.730;11.110;2022-10-15T19:39:21;1.05;;;0.85;;
33738;SDS011;20063;51.730;11.110;2022-10-15T19:41:48;2.60;;;0.98;;
33738;SDS011;20063;51.730;11.110;2022-10-15T19:44:15;1.45;;;1.02;;
33738;SDS011;20063;51.730;11.110;2022-10-15T19:46:43;2.53;;;2.10;;
33738;SDS011;20063;51.730;11.110;2022-10-15T19:49:11;6.05;;;2.13;;
33738;SDS011;20063;51.730;11.110;2022-10-15T19:51:37;3.83;;;2.75;;
33738;SDS011;20063;51.730;11.110;2022-10-15T19:54:03;5.85;;;2.92;;
33738;SDS011;20063;51.730;11.110;2022-10-15T19:56:29;3.90;;;2.60;;
33738;SDS011;20063;51.730;11.110;2022-10-15T19:58:56;8.27;;;2.90;;
33738;SDS011;20063;51.730;11.110;2022-10-15T20:01:23;4.57;;;2.78;;
33738;SDS011;20063;51.730;11.110;2022-10-15T20:03:50;3.53;;;2.20;;
33738;SDS011;20063;51.730;11.110;2022-10-15T20:06:16;4.75;;;2.17;;
33738;SDS011;20063;51.730;11.110;2022-10-15T20:08:43;2.30;;;1.45;;
33738;SDS011;20063;51.730;11.110;2022-10-15T20:11:08;1.20;;;0.90;;
33738;SDS011;20063;51.730;11.110;2022-10-15T20:13:35;1.80;;;1.00;;
33738;SDS011;20063;51.730;11.110;2022-10-15T20:16:02;1.60;;;1.10;;
33738;SDS011;20063;51.730;11.110;2022-10-15T20:18:29;1.73;;;0.93;;
33738;SDS011;20063;51.730;11.110;2022-10-15T20:20:56;0.77;;;0.70;;
33738;SDS011;20063;51.730;11.110;2022-10-15T20:23:21;2.67;;;0.98;;
33738;SDS011;20063;51.730;11.110;2022-10-15T20:25:50;2.03;;;1.00;;
33738;SDS011;20063;51.730;11.110;2022-10-15T20:28:16;3.00;;;1.20;;
33738;SDS011;20063;51.730;11.110;2022-10-15T20:30:42;1.25;;;0.80;;
33738;SDS011;20063;51.730;11.110;2022-10-15T20:33:08;2.33;;;1.08;;
33738;SDS011;20063;51.730;11.110;2022-10-15T20:35:36;1.17;;;1.00;;
33738;SDS011;20063;51.730;11.110;2022-10-15T20:38:02;1.63;;;0.80;;
33738;SDS011;20063;51.730;11.110;2022-10-15T20:40:29;0.40;;;0.40;;
33738;SDS011;20063;51.730;11.110;2022-10-15T20:42:55;0.52;;;0.52;;
33738;SDS011;20063;51.730;11.110;2022-10-15T20:45:21;2.15;;;0.60;;
33738;SDS011;20063;51.730;11.110;2022-10-15T20:47:47;0.80;;;0.70;;
33738;SDS011;20063;51.730;11.110;2022-10-15T20:50:17;1.10;;;0.70;;
33738;SDS011;20063;51.730;11.110;2022-10-15T20:52:50;1.98;;;0.70;;
33738;SDS011;20063;51.730;11.110;2022-10-15T20:55:18;2.22;;;0.52;;
33738;SDS011;20063;51.730;11.110;2022-10-15T20:57:44;1.50;;;0.77;;
33738;SDS011;20063;51.730;11.110;2022-10-15T21:00:10;1.05;;;0.60;;
33738;SDS011;20063;51.730;11.110;2022-10-15T21:02:36;1.00;;;0.60;;
33738;SDS011;20063;51.730;11.110;2022-10-15T21:05:02;2.83;;;0.55;;
33738;SDS011;20063;51.730;11.110;2022-10-15T21:07:27;2.85;;;0.90;;
33738;SDS011;20063;51.730;11.110;2022-10-15T21:09:53;0.93;;;0.70;;
33738;SDS011;20063;51.730;11.110;2022-10-15T21:12:19;2.78;;;0.52;;
33738;SDS011;20063;51.730;11.110;2022-10-15T21:14:45;0.60;;;0.60;;
33738;SDS011;20063;51.730;11.110;2022-10-15T21:17:11;2.17;;;0.73;;
33738;SDS011;20063;51.730;11.110;2022-10-15T21:19:36;2.40;;;0.75;;
33738;SDS011;20063;51.730;11.110;2022-10-15T21:22:02;1.25;;;0.77;;
33738;SDS011;20063;51.730;11.110;2022-10-15T21:24:28;2.53;;;0.68;;
33738;SDS011;20063;51.730;11.110;2022-10-15T21:26:54;0.50;;;0.50;;
33738;SDS011;20063;51.730;11.110;2022-10-15T21:29:20;4.10;;;0.82;;
33738;SDS011;20063;51.730;11.110;2022-10-15T21:31:46;3.33;;;0.60;;
33738;SDS011;20063;51.730;11.110;2022-10-15T21:34:13;0.40;;;0.40;;
33738;SDS011;20063;51.730;11.110;2022-10-15T21:36:39;0.85;;;0.65;;
33738;SDS011;20063;51.730;11.110;2022-10-15T21:39:06;0.85;;;0.50;;
33738;SDS011;20063;51.730;11.110;2022-10-15T21:41:33;1.15;;;0.68;;
33738;SDS011;20063;51.730;11.110;2022-10-15T21:44:01;5.15;;;0.98;;
33738;SDS011;20063;51.730;11.110;2022-10-15T21:46:27;1.15;;;0.50;;
33738;SDS011;20063;51.730;11.110;2022-10-15T21:48:55;1.67;;;0.68;;
33738;SDS011;20063;51.730;11.110;2022-10-15T21:51:22;1.92;;;0.95;;
33738;SDS011;20063;51.730;11.110;2022-10-15T21:53:50;2.92;;;0.50;;
33738;SDS011;20063;51.730;11.110;2022-10-15T21:56:16;3.80;;;0.90;;
33738;SDS011;20063;51.730;11.110;2022-10-15T21:58:41;2.72;;;0.60;;
33738;SDS011;20063;51.730;11.110;2022-10-15T22:01:11;0.60;;;0.60;;
33738;SDS011;20063;51.730;11.110;2022-10-15T22:03:42;0.52;;;0.52;;
33738;SDS011;20063;51.730;11.110;2022-10-15T22:06:09;0.73;;;0.63;;
33738;SDS011;20063;51.730;11.110;2022-10-15T22:08:35;0.70;;;0.70;;
33738;SDS011;20063;51.730;11.110;2022-10-15T22:13:39;2.28;;;0.73;;
33738;SDS011;20063;51.730;11.110;2022-10-15T22:16:06;3.10;;;0.77;;
33738;SDS011;20063;51.730;11.110;2022-10-15T22:18:32;0.70;;;0.70;;
33738;SDS011;20063;51.730;11.110;2022-10-15T22:21:06;1.63;;;0.65;;
33738;SDS011;20063;51.730;11.110;2022-10-15T22:23:46;3.13;;;0.80;;
33738;SDS011;20063;51.730;11.110;2022-10-15T22:26:15;1.20;;;0.70;;
33738;SDS011;20063;51.730;11.110;2022-10-15T22:28:42;3.20;;;0.57;;
33738;SDS011;20063;51.730;11.110;2022-10-15T22:31:10;1.75;;;0.60;;
33738;SDS011;20063;51.730;11.110;2022-10-15T22:33:37;2.72;;;0.85;;
33738;SDS011;20063;51.730;11.110;2022-10-15T22:36:05;2.58;;;0.60;;
33738;SDS011;20063;51.730;11.110;2022-10-15T22:38:37;0.85;;;0.60;;
33738;SDS011;20063;51.730;11.110;2022-10-15T22:41:04;0.77;;;0.70;;
33738;SDS011;20063;51.730;11.110;2022-10-15T22:43:31;0.65;;;0.65;;
33738;SDS011;20063;51.730;11.110;2022-10-15T22:45:58;6.90;;;0.88;;
33738;SDS011;20063;51.730;11.110;2022-10-15T22:48:24;0.82;;;0.60;;
33738;SDS011;20063;51.730;11.110;2022-10-15T22:50:56;4.88;;;0.90;;
33738;SDS011;20063;51.730;11.110;2022-10-15T22:53:22;6.22;;;1.08;;
33738;SDS011;20063;51.730;11.110;2022-10-15T22:56:01;1.85;;;0.90;;
33738;SDS011;20063;51.730;11.110;2022-10-15T22:58:32;3.50;;;0.93;;
33738;SDS011;20063;51.730;11.110;2022-10-15T23:01:06;0.88;;;0.80;;
33738;SDS011;20063;51.730;11.110;2022-10-15T23:03:35;1.15;;;0.63;;
33738;SDS011;20063;51.730;11.110;2022-10-15T23:06:01;1.63;;;0.60;;
33738;SDS011;20063;51.730;11.110;2022-10-15T23:08:27;1.65;;;1.02;;
33738;SDS011;20063;51.730;11.110;2022-10-15T23:10:53;2.22;;;0.60;;
33738;SDS011;20063;51.730;11.110;2022-10-15T23:13:19;1.17;;;1.10;;
33738;SDS011;20063;51.730;11.110;2022-10-15T23:15:44;0.85;;;0.70;;
33738;SDS011;20063;51.730;11.110;2022-10-15T23:18:10;0.60;;;0.60;;
33738;SDS011;20063;51.730;11.110;2022-10-15T23:20:36;0.60;;;0.60;;
33738;SDS011;20063;51.730;11.110;2022-10-15T23:23:02;1.35;;;0.60;;
33738;SDS011;20063;51.730;11.110;2022-10-15T23:25:28;4.40;;;0.70;;
33738;SDS011;20063;51.730;11.110;2022-10-15T23:27:54;4.10;;;0.90;;
33738;SDS011;20063;51.730;11.110;2022-10-15T23:30:20;1.00;;;0.60;;
33738;SDS011;20063;51.730;11.110;2022-10-15T23:32:45;1.02;;;0.80;;
33738;SDS011;20063;51.730;11.110;2022-10-15T23:35:11;0.82;;;0.80;;
33738;SDS011;20063;51.730;11.110;2022-10-15T23:37:40;0.85;;;0.65;;
33738;SDS011;20063;51.730;11.110;2022-10-15T23:40:06;1.48;;;0.73;;
33738;SDS011;20063;51.730;11.110;2022-10-15T23:42:32;2.97;;;0.68;;
33738;SDS011;20063;51.730;11.110;2022-10-15T23:44:58;0.50;;;0.50;;
33738;SDS011;20063;51.730;11.110;2022-10-15T23:47:24;0.60;;;0.60;;
33738;SDS011;20063;51.730;11.110;2022-10-15T23:49:49;1.55;;;0.90;;
33738;SDS011;20063;51.730;11.110;2022-10-15T23:52:15;0.77;;;0.52;;
33738;SDS011;20063;51.730;11.110;2022-10-15T23:54:40;1.30;;;0.60;;
33738;SDS011;20063;51.730;11.110;2022-10-15T23:57:06;1.38;;;0.75;;
33738;SDS011;20063;51.730;11.110;2022-10-15T23:59:32;1.52;;;0.75;;
